Time;durP1;ratioP1;P1;durP2;ratioP2;P2;SDS_P1;SDS_P2;PMS_P1;PMS_P2;Temp;Humidity;BMP_temperature;BMP_pressure;BME280_temperature;BME280_humidity;BME280_pressure;Samples;Min_cycle;Max_cycle;Signal;HPM_P1;HPM_P2
2021/12/27 00:00:09;;;;;;;33.75;11.23;;;0.40;99.90;;;;;;5078028;28;20054;-73
2021/12/27 00:02:35;;;;;;;33.40;12.45;;;0.40;99.90;;;;;;5095233;28;20043;-72
2021/12/27 00:05:01;;;;;;;34.70;12.60;;;0.40;99.90;;;;;;5112929;28;20044;-72
2021/12/27 00:07:27;;;;;;;34.67;12.90;;;0.40;99.90;;;;;;5095467;28;20372;-72
2021/12/27 00:09:52;;;;;;;40.67;13.38;;;0.40;99.90;;;;;;5094788;28;20418;-73
2021/12/27 00:12:18;;;;;;;32.40;11.25;;;0.40;99.90;;;;;;5094685;28;20047;-72
2021/12/27 00:14:44;;;;;;;37.85;14.43;;;0.40;99.90;;;;;;5077564;28;20062;-73
2021/12/27 00:17:10;;;;;;;37.40;13.18;;;0.50;99.90;;;;;;5111192;28;20054;-72
2021/12/27 00:19:35;;;;;;;36.17;13.73;;;0.50;99.90;;;;;;5094880;28;20047;-71
2021/12/27 00:22:01;;;;;;;31.92;12.02;;;0.50;99.90;;;;;;5094204;28;20044;-74
2021/12/27 00:24:27;;;;;;;32.72;12.93;;;0.50;99.90;;;;;;5094899;28;20047;-70
2021/12/27 00:26:52;;;;;;;37.05;13.48;;;0.50;99.90;;;;;;5094010;28;20343;-71
2021/12/27 00:29:18;;;;;;;32.20;12.35;;;0.50;99.90;;;;;;5077620;28;20040;-72
2021/12/27 00:31:44;;;;;;;34.95;12.07;;;0.50;99.90;;;;;;5094338;28;20337;-74
2021/12/27 00:34:10;;;;;;;41.22;14.80;;;0.60;99.90;;;;;;5094487;28;20087;-73
2021/12/27 00:36:36;;;;;;;34.63;12.23;;;0.60;99.90;;;;;;5112767;28;20439;-72
2021/12/27 00:39:03;;;;;;;39.45;14.80;;;0.60;99.90;;;;;;5094237;28;20047;-73
2021/12/27 00:41:29;;;;;;;36.97;14.32;;;0.60;99.90;;;;;;5094394;28;20349;-73
2021/12/27 00:43:54;;;;;;;23.38;8.73;;;0.60;99.90;;;;;;5094363;28;20051;-73
2021/12/27 00:46:20;;;;;;;29.42;10.70;;;0.70;99.90;;;;;;5112543;28;20047;-71
2021/12/27 00:48:46;;;;;;;26.80;9.75;;;0.70;99.90;;;;;;5112347;28;20043;-74
2021/12/27 00:51:12;;;;;;;37.78;13.13;;;0.70;99.90;;;;;;5094331;28;20051;-73
2021/12/27 00:53:38;;;;;;;34.42;13.15;;;0.60;99.90;;;;;;5111395;28;20052;-70
2021/12/27 00:56:04;;;;;;;29.75;9.88;;;0.60;99.90;;;;;;5094550;28;20039;-74
2021/12/27 00:58:30;;;;;;;38.90;14.35;;;0.70;99.90;;;;;;5112426;28;20056;-72
2021/12/27 01:00:56;;;;;;;35.65;13.55;;;0.70;99.90;;;;;;5111997;28;20407;-74
2021/12/27 01:03:22;;;;;;;39.92;15.63;;;0.70;99.90;;;;;;5112556;28;20044;-72
2021/12/27 01:05:48;;;;;;;36.15;13.40;;;0.90;99.90;;;;;;5093912;28;20139;-74
2021/12/27 01:08:15;;;;;;;36.87;13.07;;;0.70;99.90;;;;;;5093533;28;20079;-71
2021/12/27 01:13:26;;;;;;;35.08;13.27;;;0.70;99.90;;;;;;5097237;28;20440;-72
2021/12/27 01:18:49;;;;;;;37.75;13.98;;;0.70;99.90;;;;;;5097563;28;20462;-72
2021/12/27 01:21:18;;;;;;;38.88;14.57;;;0.70;99.90;;;;;;5115622;28;20420;-71
2021/12/27 01:23:44;;;;;;;39.00;14.43;;;0.60;99.90;;;;;;5080708;28;20437;-72
2021/12/27 01:26:10;;;;;;;36.30;13.98;;;0.70;99.90;;;;;;5097857;28;20097;-73
2021/12/27 01:28:36;;;;;;;36.67;13.68;;;0.80;99.90;;;;;;5097917;28;20434;-73
2021/12/27 01:31:03;;;;;;;38.75;14.10;;;0.70;99.90;;;;;;5114061;28;20045;-73
2021/12/27 01:33:30;;;;;;;36.35;11.93;;;0.70;99.90;;;;;;5097531;28;20035;-72
2021/12/27 01:35:56;;;;;;;38.03;14.45;;;0.70;99.90;;;;;;5097437;28;20051;-72
2021/12/27 01:38:23;;;;;;;36.63;14.03;;;0.70;99.90;;;;;;5115692;28;20069;-73
2021/12/27 01:40:51;;;;;;;40.33;13.70;;;0.70;99.90;;;;;;5081673;28;20376;-73
2021/12/27 01:43:26;;;;;;;42.05;14.65;;;0.70;99.90;;;;;;5115147;28;20510;-72
2021/12/27 01:45:55;;;;;;;43.88;15.43;;;0.70;99.90;;;;;;5115108;28;20079;-74
2021/12/27 01:48:24;;;;;;;36.25;14.52;;;0.60;99.90;;;;;;5114009;28;20478;-72
2021/12/27 01:50:55;;;;;;;39.50;13.68;;;0.70;99.90;;;;;;5115173;28;20386;-73
2021/12/27 01:53:23;;;;;;;35.58;14.10;;;0.70;99.90;;;;;;5097310;28;20127;-72
2021/12/27 01:55:50;;;;;;;38.08;14.25;;;0.70;99.90;;;;;;5099128;28;20101;-71
2021/12/27 01:58:17;;;;;;;39.40;14.90;;;0.70;99.90;;;;;;5132001;27;20059;-72
2021/12/27 02:00:46;;;;;;;37.33;14.38;;;0.70;99.90;;;;;;5096618;28;20062;-72
2021/12/27 02:03:18;;;;;;;39.72;14.10;;;0.70;99.90;;;;;;5114373;28;20047;-72
2021/12/27 02:05:44;;;;;;;39.58;14.27;;;0.70;99.90;;;;;;5115074;28;20049;-71
2021/12/27 02:08:11;;;;;;;36.75;15.02;;;0.70;99.90;;;;;;5114646;28;20098;-73
2021/12/27 02:10:37;;;;;;;42.05;14.80;;;0.70;99.90;;;;;;5114868;28;20122;-73
2021/12/27 02:13:03;;;;;;;39.03;13.70;;;0.70;99.90;;;;;;5114464;28;20044;-73
2021/12/27 02:15:29;;;;;;;39.60;15.35;;;0.80;99.90;;;;;;5096708;28;20052;-73
2021/12/27 02:17:56;;;;;;;38.75;13.95;;;0.80;99.90;;;;;;5114060;28;20039;-75
2021/12/27 02:20:30;;;;;;;39.55;14.60;;;0.80;99.90;;;;;;5114696;28;20040;-74
2021/12/27 02:23:01;;;;;;;41.20;16.05;;;0.80;99.90;;;;;;5096351;28;20439;-75
2021/12/27 02:25:31;;;;;;;37.55;15.10;;;0.80;99.90;;;;;;5114216;28;20084;-73
2021/12/27 02:27:59;;;;;;;39.55;14.95;;;0.70;99.90;;;;;;5096004;28;20055;-75
2021/12/27 02:30:25;;;;;;;44.83;15.30;;;0.80;99.90;;;;;;5114944;28;20047;-73
2021/12/27 02:32:57;;;;;;;44.25;15.63;;;0.80;99.90;;;;;;5096321;28;20135;-72
2021/12/27 02:35:28;;;;;;;41.47;15.73;;;0.80;99.90;;;;;;5114354;28;20124;-73
2021/12/27 02:37:56;;;;;;;42.80;15.63;;;0.80;99.90;;;;;;5096362;28;20066;-73
2021/12/27 02:40:25;;;;;;;39.13;15.20;;;0.80;99.90;;;;;;5114493;28;20043;-73
2021/12/27 02:43:04;;;;;;;39.05;14.63;;;0.80;99.90;;;;;;5115178;28;20052;-73
2021/12/27 02:45:37;;;;;;;39.03;14.32;;;0.80;99.90;;;;;;5099638;28;20518;-72
2021/12/27 02:48:04;;;;;;;34.38;14.20;;;0.80;99.90;;;;;;5133331;27;20394;-72
2021/12/27 02:50:32;;;;;;;38.60;14.70;;;0.80;99.90;;;;;;5116441;28;20048;-72
2021/12/27 02:52:59;;;;;;;44.58;16.10;;;0.80;99.90;;;;;;5117592;28;20039;-74
2021/12/27 02:55:25;;;;;;;38.38;15.48;;;0.90;99.90;;;;;;5117457;28;20491;-72
2021/12/27 02:57:51;;;;;;;40.03;15.57;;;0.80;99.90;;;;;;5118738;28;20050;-72
2021/12/27 03:00:29;;;;;;;43.22;15.77;;;0.90;99.90;;;;;;5118327;28;20052;-73
2021/12/27 03:02:57;;;;;;;42.10;15.82;;;0.80;99.90;;;;;;5097492;28;20043;-72
2021/12/27 03:05:24;;;;;;;;;;;0.90;99.90;;;;;;5131939;27;20100;-72
2021/12/27 03:07:51;;;;;;;44.25;15.57;;;0.80;99.90;;;;;;5095729;28;20027;-72
2021/12/27 03:10:18;;;;;;;;;;;0.90;99.90;;;;;;5095344;28;20054;-72
2021/12/27 03:12:45;;;;;;;40.10;14.48;;;0.90;99.90;;;;;;5095925;28;20344;-72
2021/12/27 03:15:14;;;;;;;45.03;15.80;;;0.90;99.90;;;;;;5113165;28;20105;-72
2021/12/27 03:17:45;;;;;;;44.03;15.00;;;0.90;99.90;;;;;;5113089;28;20048;-73
2021/12/27 03:20:13;;;;;;;40.72;14.55;;;0.90;99.90;;;;;;5113224;28;20047;-72
2021/12/27 03:22:41;;;;;;;19.65;7.95;;;1.00;99.90;;;;;;5113448;28;20040;-72
2021/12/27 03:25:09;;;;;;;40.25;14.98;;;0.90;99.90;;;;;;5112258;28;20424;-73
2021/12/27 03:27:35;;;;;;;38.45;12.73;;;0.90;99.90;;;;;;5095246;28;20058;-74
2021/12/27 03:30:04;;;;;;;35.40;13.75;;;1.00;99.90;;;;;;5095083;28;20048;-75
2021/12/27 03:32:31;;;;;;;40.92;14.90;;;0.90;99.90;;;;;;5111865;28;20130;-73
2021/12/27 03:35:08;;;;;;;;;;;1.00;99.90;;;;;;5129118;27;20059;-73
2021/12/27 03:37:34;;;;;;;41.00;15.05;;;1.00;99.90;;;;;;5095110;28;19930;-73
2021/12/27 03:40:00;;;;;;;36.17;13.75;;;1.00;99.90;;;;;;5112723;28;20548;-71
2021/12/27 03:42:26;;;;;;;39.17;15.00;;;1.00;99.90;;;;;;5112928;28;20391;-72
2021/12/27 03:44:52;;;;;;;45.53;16.15;;;1.00;99.90;;;;;;5094948;28;20044;-72
2021/12/27 03:47:18;;;;;;;38.38;14.75;;;1.00;99.90;;;;;;5077459;28;20054;-72
2021/12/27 03:49:44;;;;;;;45.78;15.40;;;1.00;99.90;;;;;;5112383;28;20044;-72
2021/12/27 03:52:09;;;;;;;42.40;16.45;;;0.90;99.90;;;;;;5094573;28;20052;-72
2021/12/27 03:54:35;;;;;;;43.03;15.85;;;1.00;99.90;;;;;;5113169;28;20401;-73
2021/12/27 03:57:01;;;;;;;45.08;16.13;;;1.00;99.90;;;;;;5112891;28;20400;-73
2021/12/27 03:59:49;;;;;;;45.85;15.48;;;1.00;99.90;;;;;;5113075;28;20418;-73
2021/12/27 04:02:15;;;;;;;45.10;15.85;;;1.00;99.90;;;;;;5112852;28;20051;-73
2021/12/27 04:04:42;;;;;;;50.38;17.90;;;1.00;99.90;;;;;;5112907;28;20049;-73
2021/12/27 04:07:08;;;;;;;43.58;14.52;;;1.00;99.90;;;;;;5128329;27;20047;-75
2021/12/27 04:09:36;;;;;;;41.67;15.43;;;1.00;99.90;;;;;;5112908;28;20104;-72
2021/12/27 04:12:02;;;;;;;;;;;1.00;99.90;;;;;;5129126;28;20048;-73
2021/12/27 04:14:28;;;;;;;46.00;16.40;;;1.00;99.90;;;;;;5113038;28;19966;-73
2021/12/27 04:16:54;;;;;;;42.47;16.40;;;1.00;99.90;;;;;;5112381;28;20143;-72
2021/12/27 04:19:20;;;;;;;43.42;15.65;;;1.00;99.90;;;;;;5112775;28;20044;-73
2021/12/27 04:21:46;;;;;;;44.95;16.05;;;1.00;99.90;;;;;;5128302;28;20057;-72
2021/12/27 04:24:12;;;;;;;45.97;16.58;;;1.00;99.90;;;;;;5111430;28;20501;-73
2021/12/27 04:26:38;;;;;;;45.42;16.88;;;1.00;99.90;;;;;;5128576;28;20143;-73
2021/12/27 04:29:04;;;;;;;38.97;14.25;;;1.10;99.90;;;;;;5112242;28;20055;-73
2021/12/27 04:31:30;;;;;;;34.05;12.38;;;1.10;99.90;;;;;;5112967;28;20035;-73
2021/12/27 04:33:56;;;;;;;49.13;17.50;;;1.20;99.90;;;;;;5077599;28;20047;-73
2021/12/27 04:36:22;;;;;;;44.88;16.42;;;1.10;99.90;;;;;;5112324;28;20056;-72
2021/12/27 04:38:48;;;;;;;42.03;15.68;;;1.10;99.90;;;;;;5128170;28;20040;-73
2021/12/27 04:41:18;;;;;;;45.70;17.40;;;1.10;99.90;;;;;;5077450;28;20130;-73
2021/12/27 04:43:43;;;;;;;43.22;16.80;;;1.00;99.90;;;;;;5111202;28;20058;-73
2021/12/27 04:46:09;;;;;;;42.72;14.73;;;1.00;99.90;;;;;;5094403;28;20036;-73
2021/12/27 04:48:35;;;;;;;45.10;16.52;;;1.00;99.90;;;;;;5116246;28;20387;-73
2021/12/27 04:51:01;;;;;;;46.45;17.67;;;1.00;99.90;;;;;;5117335;28;20359;-73
2021/12/27 04:53:26;;;;;;;46.10;17.17;;;1.00;99.90;;;;;;5098054;28;20051;-73
2021/12/27 04:55:52;;;;;;;47.70;17.55;;;1.00;99.90;;;;;;5116186;28;20574;-73
2021/12/27 04:58:23;;;;;;;46.65;17.13;;;1.00;99.90;;;;;;5097812;28;20047;-73
2021/12/27 05:00:50;;;;;;;43.85;16.83;;;1.00;99.90;;;;;;5132079;27;20067;-73
2021/12/27 05:03:16;;;;;;;47.17;16.63;;;1.00;99.90;;;;;;5115700;28;20474;-73
2021/12/27 05:05:44;;;;;;;46.50;17.25;;;0.90;99.90;;;;;;5081178;28;20040;-74
2021/12/27 05:08:11;;;;;;;50.42;18.20;;;0.90;99.90;;;;;;5097805;28;20498;-74
2021/12/27 05:10:37;;;;;;;50.00;17.17;;;0.90;99.90;;;;;;5097513;28;20429;-74
2021/12/27 05:13:04;;;;;;;45.92;17.08;;;0.90;99.90;;;;;;5098622;28;20043;-74
2021/12/27 05:15:30;;;;;;;47.80;17.33;;;0.90;99.90;;;;;;5131437;27;20050;-73
2021/12/27 05:17:55;;;;;;;37.30;15.35;;;0.90;99.90;;;;;;5114498;28;20048;-74
2021/12/27 05:20:21;;;;;;;47.47;17.33;;;1.00;99.90;;;;;;5080028;28;20518;-73
2021/12/27 05:22:47;;;;;;;46.10;14.93;;;1.00;99.90;;;;;;5080672;28;20082;-73
2021/12/27 05:25:16;;;;;;;49.20;17.25;;;1.00;99.90;;;;;;5097320;28;20513;-74
2021/12/27 05:27:45;;;;;;;44.83;17.55;;;1.00;99.90;;;;;;5115375;28;20043;-74
2021/12/27 05:30:13;;;;;;;49.40;16.38;;;1.00;99.90;;;;;;5131978;27;20039;-74
2021/12/27 05:32:40;;;;;;;46.47;16.92;;;1.00;99.90;;;;;;5097021;28;20050;-74
2021/12/27 05:35:08;;;;;;;48.83;17.90;;;1.00;99.90;;;;;;5114293;27;20043;-75
2021/12/27 05:37:33;;;;;;;;;;;1.00;99.90;;;;;;5080503;28;20051;-74
2021/12/27 05:40:04;;;;;;;47.90;16.15;;;1.00;99.90;;;;;;5130994;27;19919;-74
2021/12/27 05:42:32;;;;;;;43.25;18.30;;;1.10;99.90;;;;;;5096839;28;20039;-73
2021/12/27 05:44:58;;;;;;;50.95;17.10;;;1.10;99.90;;;;;;5115286;28;20047;-74
2021/12/27 05:47:23;;;;;;;55.90;16.38;;;1.00;99.90;;;;;;5096974;28;20043;-73
2021/12/27 05:49:49;;;;;;;46.28;16.40;;;1.00;99.90;;;;;;5096741;28;20052;-74
2021/12/27 05:52:15;;;;;;;45.38;17.35;;;1.00;99.90;;;;;;5080088;28;20352;-74
2021/12/27 05:54:41;;;;;;;51.13;17.80;;;1.00;99.90;;;;;;5096999;28;20138;-74
2021/12/27 05:57:06;;;;;;;38.53;14.18;;;1.10;99.90;;;;;;5115160;28;20051;-74
2021/12/27 05:59:32;;;;;;;43.33;16.35;;;1.10;99.90;;;;;;5095764;28;20087;-74
2021/12/27 06:01:58;;;;;;;49.78;18.20;;;1.10;99.90;;;;;;5096534;28;20117;-75
2021/12/27 06:04:24;;;;;;;46.78;16.92;;;1.10;99.90;;;;;;5096925;28;20159;-74
2021/12/27 06:06:50;;;;;;;50.35;17.75;;;1.10;99.90;;;;;;5079860;28;20514;-74
2021/12/27 06:09:15;;;;;;;46.08;16.55;;;1.10;99.90;;;;;;5114774;28;20345;-74
2021/12/27 06:11:41;;;;;;;50.65;17.38;;;1.10;99.90;;;;;;5096422;28;20043;-78
2021/12/27 06:14:07;;;;;;;53.30;18.10;;;1.10;99.90;;;;;;5096228;28;20052;-74
2021/12/27 06:16:33;;;;;;;46.00;16.75;;;1.10;99.90;;;;;;5096808;28;20421;-74
2021/12/27 06:18:58;;;;;;;47.28;17.63;;;1.20;99.90;;;;;;5114478;28;20054;-76
2021/12/27 06:21:24;;;;;;;39.25;13.25;;;1.20;99.90;;;;;;5096721;28;20051;-75
2021/12/27 06:23:50;;;;;;;40.30;14.80;;;1.20;99.90;;;;;;5095927;28;20544;-75
2021/12/27 06:26:16;;;;;;;47.28;17.92;;;1.20;99.90;;;;;;5096178;28;20180;-74
2021/12/27 06:28:42;;;;;;;46.78;16.88;;;1.20;99.90;;;;;;5095997;28;20104;-75
2021/12/27 06:31:08;;;;;;;41.47;13.68;;;1.20;99.90;;;;;;5096437;28;20044;-74
2021/12/27 06:33:34;;;;;;;48.35;17.35;;;1.20;99.90;;;;;;5096287;28;20046;-74
2021/12/27 06:36:00;;;;;;;45.05;15.20;;;1.20;99.90;;;;;;5113401;28;20051;-73
2021/12/27 06:38:26;;;;;;;48.33;17.25;;;1.20;99.90;;;;;;5095943;28;20035;-77
2021/12/27 06:40:52;;;;;;;45.35;16.98;;;1.20;99.90;;;;;;5114685;28;20452;-73
2021/12/27 06:43:18;;;;;;;47.90;16.58;;;1.30;99.90;;;;;;5114348;28;20055;-76
2021/12/27 06:45:44;;;;;;;50.13;18.75;;;1.30;99.90;;;;;;5096209;28;20433;-74
2021/12/27 06:48:10;;;;;;;50.55;17.25;;;1.30;99.90;;;;;;5113616;28;20040;-76
2021/12/27 06:50:36;;;;;;;54.53;18.52;;;1.30;99.90;;;;;;5112499;28;20039;-75
2021/12/27 06:53:02;;;;;;;46.72;15.57;;;1.30;99.90;;;;;;5079262;28;20388;-74
2021/12/27 06:55:28;;;;;;;55.17;18.90;;;1.20;99.90;;;;;;5113998;28;20099;-76
2021/12/27 06:57:54;;;;;;;41.85;14.52;;;1.30;99.90;;;;;;5078856;28;20039;-74
2021/12/27 07:00:19;;;;;;;51.83;17.58;;;1.30;99.90;;;;;;5095580;28;20160;-73
2021/12/27 07:02:46;;;;;;;49.92;17.48;;;1.30;99.90;;;;;;5113918;28;20043;-73
2021/12/27 07:05:12;;;;;;;52.83;16.27;;;1.20;99.90;;;;;;5112535;28;20052;-73
2021/12/27 07:07:39;;;;;;;52.40;18.48;;;1.30;99.90;;;;;;5113701;28;20090;-73
2021/12/27 07:10:07;;;;;;;50.05;17.45;;;1.20;99.90;;;;;;5113312;28;20040;-74
2021/12/27 07:12:33;;;;;;;54.55;17.65;;;1.30;99.90;;;;;;5113613;28;20422;-74
2021/12/27 07:14:59;;;;;;;55.67;17.70;;;1.30;99.90;;;;;;5113811;28;20055;-74
2021/12/27 07:17:26;;;;;;;56.42;17.63;;;1.40;99.90;;;;;;5095560;28;20363;-74
2021/12/27 07:19:52;;;;;;;60.83;17.98;;;1.30;99.90;;;;;;5062004;28;20048;-74
2021/12/27 07:22:18;;;;;;;40.50;12.82;;;1.40;99.90;;;;;;5129865;27;20047;-74
2021/12/27 07:24:44;;;;;;;53.47;17.83;;;1.40;99.90;;;;;;5113193;28;20498;-73
2021/12/27 07:27:10;;;;;;;53.33;18.42;;;1.30;99.90;;;;;;5113383;28;20050;-74
2021/12/27 07:29:36;;;;;;;57.45;17.63;;;1.40;99.90;;;;;;5095472;28;20055;-74
2021/12/27 07:32:02;;;;;;;54.60;17.40;;;1.40;99.90;;;;;;5077917;28;20047;-76
2021/12/27 07:34:28;;;;;;;58.55;18.73;;;1.40;99.90;;;;;;5078057;28;20051;-74
2021/12/27 07:36:55;;;;;;;52.97;15.85;;;1.40;99.90;;;;;;5095310;28;20043;-74
2021/12/27 07:39:23;;;;;;;56.33;17.30;;;1.40;99.90;;;;;;5096857;28;20066;-74
2021/12/27 07:41:49;;;;;;;67.75;17.27;;;1.40;99.90;;;;;;5096488;28;20070;-74
2021/12/27 07:44:16;;;;;;;58.00;16.92;;;1.40;99.90;;;;;;5082506;28;20059;-73
2021/12/27 07:46:43;;;;;;;67.28;19.10;;;1.50;99.90;;;;;;5133067;27;20087;-74
2021/12/27 07:49:10;;;;;;;56.15;19.38;;;1.50;99.90;;;;;;5118288;28;20112;-75
2021/12/27 07:51:36;;;;;;;70.90;22.88;;;1.40;99.90;;;;;;5080437;28;20059;-75
2021/12/27 07:54:03;;;;;;;65.97;20.58;;;1.50;99.90;;;;;;5115542;28;20455;-74
2021/12/27 07:56:29;;;;;;;66.20;19.83;;;1.40;99.90;;;;;;5098389;28;20058;-71
2021/12/27 07:58:55;;;;;;;62.50;20.50;;;1.40;99.90;;;;;;5096022;28;20277;-73
2021/12/27 08:01:21;;;;;;;50.20;13.73;;;1.40;99.90;;;;;;5129632;27;20134;-74
2021/12/27 08:03:47;;;;;;;65.05;21.48;;;1.60;99.90;;;;;;5115788;28;20049;-74
2021/12/27 08:06:12;;;;;;;87.05;31.23;;;1.60;99.90;;;;;;5097673;28;20051;-74
2021/12/27 08:08:39;;;;;;;69.35;26.13;;;1.50;99.90;;;;;;5113655;28;20357;-74
2021/12/27 08:11:04;;;;;;;64.45;20.95;;;1.50;99.90;;;;;;5114153;28;20054;-75
2021/12/27 08:13:30;;;;;;;59.45;17.08;;;1.60;99.90;;;;;;5094744;28;20464;-74
2021/12/27 08:15:56;;;;;;;55.88;18.15;;;1.50;99.90;;;;;;5077304;28;20051;-78
2021/12/27 08:18:22;;;;;;;65.20;22.17;;;1.60;99.90;;;;;;5111993;28;20048;-75
2021/12/27 08:20:48;;;;;;;70.28;19.90;;;1.60;99.90;;;;;;5078213;28;20039;-74
2021/12/27 08:23:15;;;;;;;70.95;19.90;;;1.60;99.90;;;;;;5131939;27;20086;-74
2021/12/27 08:25:41;;;;;;;74.18;19.00;;;1.60;99.90;;;;;;5133040;27;20472;-74
2021/12/27 08:28:07;;;;;;;66.18;19.08;;;1.60;99.90;;;;;;5098792;28;20044;-75
2021/12/27 08:30:33;;;;;;;67.97;19.52;;;1.70;99.90;;;;;;5116597;28;20549;-75
2021/12/27 08:32:59;;;;;;;58.20;19.33;;;1.60;99.90;;;;;;5098374;28;20153;-75
2021/12/27 08:35:26;;;;;;;65.20;19.42;;;1.60;99.90;;;;;;5098630;28;20075;-74
2021/12/27 08:37:53;;;;;;;73.25;19.42;;;1.70;99.90;;;;;;5098276;28;20047;-76
2021/12/27 08:40:18;;;;;;;64.70;19.45;;;1.70;99.90;;;;;;5098641;28;20134;-74
2021/12/27 08:42:45;;;;;;;65.47;17.58;;;1.70;99.90;;;;;;5117458;28;20106;-75
2021/12/27 08:45:11;;;;;;;69.05;19.70;;;1.70;99.90;;;;;;5098628;28;20042;-75
2021/12/27 08:47:38;;;;;;;74.53;19.63;;;1.80;99.90;;;;;;5132564;27;20047;-76
2021/12/27 08:50:05;;;;;;;47.42;14.45;;;1.80;99.90;;;;;;5098075;28;20108;-74
2021/12/27 08:52:31;;;;;;;;;;;1.90;99.90;;;;;;5098227;28;20083;-74
2021/12/27 08:54:58;;;;;;;65.82;18.08;;;1.90;99.90;;;;;;5097853;28;20369;-73
2021/12/27 08:57:24;;;;;;;75.25;20.17;;;1.80;99.90;;;;;;5116354;28;20094;-74
2021/12/27 08:59:50;;;;;;;80.78;19.17;;;1.80;99.90;;;;;;5116116;28;20082;-74
2021/12/27 09:02:15;;;;;;;59.67;17.20;;;1.80;99.90;;;;;;5098311;28;20130;-75
2021/12/27 09:04:43;;;;;;;75.05;20.30;;;1.80;99.90;;;;;;5097996;28;20143;-74
2021/12/27 09:07:09;;;;;;;57.60;17.00;;;1.90;99.90;;;;;;5098209;28;20511;-74
2021/12/27 09:09:35;;;;;;;64.18;19.17;;;2.00;99.90;;;;;;5098874;28;20059;-74
2021/12/27 09:12:01;;;;;;;69.38;17.13;;;1.90;99.90;;;;;;5132590;27;20039;-74
2021/12/27 09:14:27;;;;;;;73.72;18.65;;;1.90;99.90;;;;;;5116776;28;20534;-75
2021/12/27 09:16:52;;;;;;;71.13;19.80;;;1.90;99.90;;;;;;5097657;28;20051;-74
2021/12/27 09:19:18;;;;;;;66.78;17.65;;;2.00;99.90;;;;;;5116209;28;20051;-74
2021/12/27 09:21:44;;;;;;;70.28;18.95;;;2.00;99.90;;;;;;5098728;28;20046;-74
2021/12/27 09:24:09;;;;;;;70.53;19.75;;;2.00;99.90;;;;;;5116185;28;20043;-74
2021/12/27 09:26:35;;;;;;;70.00;20.80;;;2.00;99.90;;;;;;5116379;28;20352;-73
2021/12/27 09:29:02;;;;;;;67.45;19.75;;;2.00;99.90;;;;;;5116185;28;20114;-73
2021/12/27 09:31:28;;;;;;;78.40;17.00;;;2.10;99.90;;;;;;5116728;28;20077;-73
2021/12/27 09:33:53;;;;;;;78.05;19.77;;;2.20;99.90;;;;;;5097108;28;20097;-73
2021/12/27 09:36:19;;;;;;;64.80;19.52;;;2.20;99.90;;;;;;5097323;28;20100;-74
2021/12/27 09:38:45;;;;;;;73.95;19.02;;;2.30;99.90;;;;;;5096726;28;20578;-73
2021/12/27 09:41:14;;;;;;;84.80;21.67;;;2.30;99.90;;;;;;5096803;28;20118;-73
2021/12/27 09:43:39;;;;;;;69.53;19.60;;;2.30;99.90;;;;;;5130918;27;20047;-73
2021/12/27 09:46:06;;;;;;;90.47;19.15;;;2.30;99.90;;;;;;5080131;28;20148;-73
2021/12/27 09:48:34;;;;;;;55.75;13.63;;;2.30;99.90;;;;;;5115560;28;20086;-72
2021/12/27 09:51:00;;;;;;;;;;;2.40;99.90;;;;;;5115603;28;20069;-74
2021/12/27 09:53:26;;;;;;;80.40;18.58;;;2.40;99.90;;;;;;5130650;27;19927;-73
2021/12/27 09:55:52;;;;;;;70.90;18.25;;;2.30;99.90;;;;;;5115233;28;20047;-74
2021/12/27 09:58:19;;;;;;;45.88;12.35;;;2.40;99.90;;;;;;5115125;28;20044;-74
2021/12/27 10:00:46;;;;;;;46.28;12.70;;;2.40;99.90;;;;;;5096811;28;20103;-76
2021/12/27 10:03:12;;;;;;;77.50;17.20;;;2.50;99.90;;;;;;5114920;28;20173;-73
2021/12/27 10:05:38;;;;;;;82.93;16.67;;;2.50;99.90;;;;;;5114592;28;20472;-73
2021/12/27 10:08:04;;;;;;;78.30;20.15;;;2.50;99.90;;;;;;5114584;28;20051;-72
2021/12/27 10:10:32;;;;;;;77.55;17.08;;;2.50;99.90;;;;;;5096702;28;20460;-72
2021/12/27 10:12:57;;;;;;;92.85;22.45;;;2.60;99.90;;;;;;5130507;27;20043;-73
2021/12/27 10:15:36;;;;;;;80.18;19.42;;;2.70;99.90;;;;;;5097198;28;20039;-73
2021/12/27 10:18:13;;;;;;;87.25;21.60;;;2.70;99.90;;;;;;5130277;27;20055;-73
2021/12/27 10:20:39;;;;;;;94.47;19.83;;;2.80;99.90;;;;;;5131556;27;20090;-74
2021/12/27 10:23:05;;;;;;;79.60;18.35;;;2.90;99.90;;;;;;5114717;28;20048;-74
2021/12/27 10:25:32;;;;;;;82.68;20.63;;;2.90;99.90;;;;;;5114321;28;20047;-73
2021/12/27 10:28:00;;;;;;;91.45;20.65;;;3.00;99.90;;;;;;5095679;28;20047;-73
2021/12/27 10:30:28;;;;;;;93.43;19.52;;;3.00;99.90;;;;;;5114004;28;20048;-73
2021/12/27 10:33:09;;;;;;;78.88;17.75;;;3.00;99.90;;;;;;5095844;28;20192;-75
2021/12/27 10:35:36;;;;;;;105.82;20.20;;;3.00;99.90;;;;;;5114086;28;20087;-74
2021/12/27 10:38:15;;;;;;;97.10;21.55;;;3.00;99.90;;;;;;5079093;28;20060;-73
2021/12/27 10:40:51;;;;;;;103.30;24.58;;;3.00;99.90;;;;;;5113901;28;20050;-72
2021/12/27 10:43:31;;;;;;;105.82;21.27;;;2.90;99.90;;;;;;5113008;28;20513;-72
2021/12/27 10:46:01;;;;;;;66.95;18.45;;;3.00;99.90;;;;;;5129036;27;20095;-74
2021/12/27 10:48:35;;;;;;;92.95;22.48;;;3.00;99.90;;;;;;5113977;28;20043;-73
2021/12/27 10:51:02;;;;;;;91.18;20.67;;;3.10;99.90;;;;;;5113918;28;20054;-72
2021/12/27 10:53:51;;;;;;;93.85;22.95;;;3.10;99.90;;;;;;5096011;28;20051;-73
2021/12/27 10:56:19;;;;;;;99.47;21.92;;;3.10;99.90;;;;;;5129765;27;20059;-73
2021/12/27 10:58:51;;;;;;;79.78;19.38;;;3.10;99.90;;;;;;5098599;28;20050;-72
2021/12/27 11:01:19;;;;;;;76.93;19.42;;;3.20;99.90;;;;;;5098668;28;20056;-72
2021/12/27 11:03:47;;;;;;;87.55;15.70;;;3.20;99.90;;;;;;5130665;27;20047;-72
2021/12/27 11:06:25;;;;;;;102.63;20.95;;;3.10;99.90;;;;;;5095654;28;20425;-73
2021/12/27 11:08:53;;;;;;;81.05;20.55;;;3.20;99.90;;;;;;5129644;27;20124;-72
2021/12/27 11:11:21;;;;;;;81.47;19.83;;;3.20;99.90;;;;;;5112374;28;20122;-74
2021/12/27 11:13:53;;;;;;;103.88;21.98;;;3.40;99.90;;;;;;5095442;28;20093;-72
2021/12/27 11:16:20;;;;;;;113.55;20.33;;;3.30;99.90;;;;;;5113432;28;20050;-73
2021/12/27 11:18:46;;;;;;;85.28;20.88;;;3.30;99.90;;;;;;5096589;28;20508;-73
2021/12/27 11:21:13;;;;;;;86.35;19.77;;;3.30;99.90;;;;;;5113160;28;20044;-73
2021/12/27 11:23:41;;;;;;;90.82;21.02;;;3.30;99.90;;;;;;5113727;28;20050;-73
2021/12/27 11:26:10;;;;;;;82.55;19.00;;;3.30;99.90;;;;;;5113288;28;20055;-73
2021/12/27 11:28:41;;;;;;;88.05;20.00;;;3.40;99.90;;;;;;5112971;28;20127;-73
2021/12/27 11:31:24;;;;;;;67.50;17.05;;;3.40;99.90;;;;;;5128928;27;20432;-75
2021/12/27 11:34:03;;;;;;;92.68;19.80;;;3.40;99.90;;;;;;5112948;28;20523;-73
2021/12/27 11:36:40;;;;;;;95.97;21.17;;;3.50;99.90;;;;;;5113258;28;20109;-73
2021/12/27 11:39:25;;;;;;;;;;;3.50;99.90;;;;;;5113312;28;20046;-74
2021/12/27 11:42:17;;;;;;;83.78;18.55;;;3.50;99.90;;;;;;5094468;28;19980;-74
2021/12/27 11:44:53;;;;;;;75.07;18.88;;;3.60;99.90;;;;;;5112916;28;20088;-73
2021/12/27 11:47:30;;;;;;;104.10;22.95;;;3.70;99.90;;;;;;5129171;27;20043;-74
2021/12/27 11:50:02;;;;;;;92.57;22.65;;;3.60;99.90;;;;;;5077646;28;20040;-74
2021/12/27 11:52:35;;;;;;;91.82;21.85;;;3.70;99.90;;;;;;5112979;28;20131;-74
2021/12/27 11:55:12;;;;;;;89.60;20.98;;;3.70;99.90;;;;;;5112409;28;20388;-72
2021/12/27 11:57:45;;;;;;;65.15;16.20;;;3.80;99.90;;;;;;5112360;28;20044;-75
2021/12/27 12:00:23;;;;;;;68.88;17.55;;;3.80;99.90;;;;;;5107580;28;20138;-72
2021/12/27 12:03:01;;;;;;;90.60;21.60;;;3.90;99.90;;;;;;5092307;28;20108;-75
2021/12/27 12:05:42;;;;;;;84.97;22.20;;;3.90;99.90;;;;;;5092355;28;20069;-72
2021/12/27 12:08:13;;;;;;;93.35;21.60;;;3.90;99.90;;;;;;5090734;28;20048;-73
2021/12/27 12:11:13;;;;;;;82.60;23.38;;;3.80;99.90;;;;;;5057170;28;20051;-74
2021/12/27 12:13:44;;;;;;;87.72;22.75;;;3.90;99.90;;;;;;5058766;28;20052;-73
2021/12/27 12:16:22;;;;;;;79.40;18.95;;;3.90;99.90;;;;;;5091831;28;20369;-73
2021/12/27 12:18:51;;;;;;;93.35;22.52;;;4.00;99.90;;;;;;5074231;28;20048;-74
2021/12/27 12:21:34;;;;;;;76.57;19.95;;;4.00;99.90;;;;;;5090352;28;20062;-74
2021/12/27 12:24:16;;;;;;;98.32;23.02;;;4.10;99.90;;;;;;5091975;28;20048;-75
2021/12/27 12:26:55;;;;;;;81.40;22.13;;;4.10;99.90;;;;;;5090860;28;20043;-74
2021/12/27 12:29:22;;;;;;;71.30;19.65;;;4.10;99.90;;;;;;5091298;28;20123;-74
2021/12/27 12:31:57;;;;;;;73.90;19.38;;;4.10;99.90;;;;;;5090825;28;20073;-74
2021/12/27 12:34:23;;;;;;;68.45;18.85;;;4.20;99.90;;;;;;5092381;28;20044;-74
2021/12/27 12:36:51;;;;;;;85.15;22.63;;;4.30;99.90;;;;;;5073754;28;20051;-73
2021/12/27 12:39:20;;;;;;;74.53;18.90;;;4.30;99.90;;;;;;5091651;28;20059;-74
2021/12/27 12:41:47;;;;;;;73.60;19.50;;;4.30;99.90;;;;;;5091505;28;20495;-73
2021/12/27 12:44:14;;;;;;;69.05;19.73;;;4.30;99.90;;;;;;5091815;28;20051;-74
2021/12/27 12:46:45;;;;;;;62.92;19.17;;;4.20;99.90;;;;;;5091594;28;20052;-73